createdAt,value
2022-12-25T00:01:27.341Z,13.77
2022-12-25T00:03:57.646Z,11.98
2022-12-25T00:06:26.463Z,14.30
2022-12-25T00:08:55.359Z,12.35
2022-12-25T00:11:24.284Z,13.73
2022-12-25T00:13:52.810Z,13.32
2022-12-25T00:16:27.374Z,13.98
2022-12-25T00:18:57.207Z,13.35
2022-12-25T00:21:25.963Z,14.05
2022-12-25T00:23:57.264Z,12.90
2022-12-25T00:26:27.977Z,13.55
2022-12-25T00:28:58.641Z,12.35
2022-12-25T00:31:30.416Z,13.63
2022-12-25T00:36:26.540Z,14.20
2022-12-25T00:38:54.698Z,15.70
2022-12-25T00:41:43.761Z,13.35
2022-12-25T00:44:14.134Z,13.25
2022-12-25T00:46:42.974Z,12.52
2022-12-25T00:49:12.859Z,12.63
2022-12-25T00:51:41.321Z,13.93
2022-12-25T00:54:10.053Z,13.43
2022-12-25T00:56:38.532Z,13.90
2022-12-25T00:59:06.899Z,15.90
2022-12-25T01:01:35.353Z,16.45
2022-12-25T01:04:04.170Z,17.98
2022-12-25T01:06:33.068Z,16.80
2022-12-25T01:09:19.755Z,15.95
2022-12-25T01:11:48.121Z,15.80
2022-12-25T01:14:16.669Z,16.98
2022-12-25T01:16:45.565Z,16.23
2022-12-25T01:19:13.792Z,16.30
2022-12-25T01:21:41.949Z,17.25
2022-12-25T01:24:10.995Z,18.73
2022-12-25T01:26:39.334Z,19.58
2022-12-25T01:29:07.909Z,20.83
2022-12-25T01:31:36.527Z,19.65
2022-12-25T01:34:04.564Z,18.05
2022-12-25T01:36:32.674Z,20.42
2022-12-25T01:39:01.693Z,19.25
2022-12-25T01:41:30.781Z,19.27
2022-12-25T01:44:16.506Z,18.95
2022-12-25T01:46:45.560Z,18.70
2022-12-25T01:49:23.737Z,18.67
2022-12-25T01:52:03.527Z,18.38
2022-12-25T01:54:38.306Z,17.75
2022-12-25T01:57:15.160Z,15.68
2022-12-25T01:59:44.266Z,18.45
2022-12-25T02:02:13.086Z,16.25
2022-12-25T02:04:51.717Z,17.52
2022-12-25T02:07:24.218Z,15.80
2022-12-25T02:09:53.759Z,14.70
2022-12-25T02:12:30.111Z,12.57
2022-12-25T02:15:21.066Z,10.30
2022-12-25T02:18:39.316Z,10.50
2022-12-25T02:21:12.064Z,8.98
2022-12-25T02:24:01.426Z,10.25
2022-12-25T02:27:25.210Z,10.75
2022-12-25T02:30:11.573Z,10.88
2022-12-25T02:32:48.381Z,9.63
2022-12-25T02:35:31.272Z,10.27
2022-12-25T02:38:25.098Z,10.10
2022-12-25T02:40:59.489Z,10.15
2022-12-25T02:43:57.608Z,10.40
2022-12-25T02:46:48.069Z,10.57
2022-12-25T02:49:42.370Z,10.43
2022-12-25T02:52:39.107Z,10.45
2022-12-25T02:55:35.494Z,10.48
2022-12-25T02:58:29.052Z,10.32
2022-12-25T03:01:24.986Z,10.45
2022-12-25T03:04:17.096Z,9.38
2022-12-25T03:07:05.747Z,10.57
2022-12-25T03:10:05.294Z,10.20
2022-12-25T03:12:56.047Z,9.73
2022-12-25T03:15:43.836Z,10.13
2022-12-25T03:18:20.047Z,10.63
2022-12-25T03:21:07.779Z,9.90
2022-12-25T03:23:58.734Z,10.85
2022-12-25T03:26:46.113Z,9.75
2022-12-25T03:29:34.902Z,10.13
2022-12-25T03:33:17.799Z,10.80
2022-12-25T03:36:12.205Z,10.50
2022-12-25T03:39:21.158Z,11.20
2022-12-25T03:42:19.725Z,11.82
2022-12-25T03:45:41.223Z,12.00
2022-12-25T03:48:46.944Z,11.85
2022-12-25T03:51:37.614Z,12.90
2022-12-25T03:54:28.546Z,12.60
2022-12-25T03:57:15.957Z,12.60
2022-12-25T04:00:02.693Z,13.18
2022-12-25T04:02:57.024Z,11.52
2022-12-25T04:05:55.006Z,12.60
2022-12-25T04:08:42.135Z,12.18
2022-12-25T04:11:29.470Z,11.52
2022-12-25T04:14:16.433Z,10.95
2022-12-25T04:17:06.536Z,11.15
2022-12-25T04:19:54.076Z,12.00
2022-12-25T04:22:40.845Z,11.23
2022-12-25T04:25:27.658Z,11.60
2022-12-25T04:28:21.373Z,11.00
2022-12-25T04:31:08.670Z,10.98
2022-12-25T04:33:56.191Z,10.98
2022-12-25T04:36:24.462Z,11.00
2022-12-25T04:38:53.052Z,10.70
2022-12-25T04:41:21.107Z,11.50
2022-12-25T04:43:49.526Z,10.07
2022-12-25T04:46:18.115Z,11.15
2022-12-25T04:48:46.530Z,10.52
2022-12-25T04:51:18.771Z,11.02
2022-12-25T04:53:49.086Z,12.20
2022-12-25T04:56:18.152Z,11.82
2022-12-25T04:58:48.267Z,11.98
2022-12-25T05:01:17.228Z,11.88
2022-12-25T05:03:45.274Z,10.85
2022-12-25T05:06:13.706Z,11.85
2022-12-25T05:08:42.236Z,12.50
2022-12-25T05:11:14.303Z,12.55
2022-12-25T05:13:42.705Z,12.82
2022-12-25T05:16:18.922Z,14.52
2022-12-25T05:18:51.969Z,15.05
2022-12-25T05:21:20.826Z,14.77
2022-12-25T05:23:53.569Z,13.63
2022-12-25T05:26:25.760Z,14.65
2022-12-25T05:28:55.546Z,12.90
2022-12-25T05:31:24.563Z,12.85
2022-12-25T05:33:53.672Z,13.10
2022-12-25T05:36:22.012Z,13.98
2022-12-25T05:38:50.904Z,12.13
2022-12-25T05:41:18.997Z,12.85
2022-12-25T05:43:47.365Z,12.63
2022-12-25T05:46:15.650Z,12.80
2022-12-25T05:48:44.442Z,13.43
2022-12-25T05:51:14.997Z,14.38
2022-12-25T05:53:44.953Z,15.20
2022-12-25T05:56:13.240Z,15.27
2022-12-25T05:58:41.817Z,15.35
2022-12-25T06:01:21.267Z,17.17
2022-12-25T06:03:49.412Z,16.33
2022-12-25T06:06:17.571Z,16.67
2022-12-25T06:08:45.884Z,15.40
2022-12-25T06:11:15.184Z,16.60
2022-12-25T06:13:43.746Z,17.38
2022-12-25T06:16:12.978Z,17.02
2022-12-25T06:18:45.564Z,18.65
2022-12-25T06:21:16.191Z,17.45
2022-12-25T06:23:44.925Z,15.45
2022-12-25T06:26:17.086Z,15.38
2022-12-25T06:28:46.693Z,16.92
2022-12-25T06:31:19.627Z,15.90
2022-12-25T06:33:49.173Z,14.32
2022-12-25T06:36:24.597Z,14.07
2022-12-25T06:38:54.118Z,14.15
2022-12-25T06:41:26.174Z,15.48
2022-12-25T06:43:58.789Z,16.45
2022-12-25T06:46:30.640Z,15.30
2022-12-25T06:49:00.642Z,16.00
2022-12-25T06:51:32.387Z,14.98
2022-12-25T06:56:34.205Z,13.75
2022-12-25T06:59:09.499Z,14.20
2022-12-25T07:01:47.312Z,15.43
2022-12-25T07:04:32.272Z,14.15
2022-12-25T07:07:08.069Z,14.90
2022-12-25T07:09:39.433Z,16.15
2022-12-25T07:12:16.937Z,15.48
2022-12-25T07:14:49.060Z,15.90
2022-12-25T07:17:18.446Z,16.73
2022-12-25T07:19:50.306Z,15.80
2022-12-25T07:24:47.231Z,17.30
2022-12-25T07:27:15.544Z,16.00
2022-12-25T07:29:43.832Z,15.70
2022-12-25T07:32:12.321Z,15.38
2022-12-25T07:34:40.614Z,15.15
2022-12-25T07:37:09.818Z,15.10
2022-12-25T07:39:38.718Z,14.68
2022-12-25T07:42:08.878Z,14.43
2022-12-25T07:44:39.159Z,13.82
2022-12-25T07:47:08.584Z,14.30
2022-12-25T07:49:36.966Z,12.70
2022-12-25T07:52:05.556Z,13.90
2022-12-25T07:54:34.473Z,15.43
2022-12-25T07:57:02.691Z,14.43
2022-12-25T07:59:32.397Z,14.75
2022-12-25T08:02:01.498Z,16.10
2022-12-25T08:04:30.090Z,16.58
2022-12-25T08:06:58.416Z,15.60
2022-12-25T08:09:27.020Z,16.67
2022-12-25T08:11:55.205Z,15.32
2022-12-25T08:14:23.495Z,16.98
2022-12-25T08:16:51.854Z,17.00
2022-12-25T08:19:20.419Z,16.58
2022-12-25T08:21:48.780Z,17.27
2022-12-25T08:24:17.265Z,19.08
2022-12-25T08:26:45.826Z,18.33
2022-12-25T08:29:14.921Z,19.27
2022-12-25T08:31:46.414Z,18.85
2022-12-25T08:34:15.811Z,20.15
2022-12-25T08:36:43.893Z,17.60
2022-12-25T08:39:12.116Z,19.98
2022-12-25T08:41:40.537Z,18.02
2022-12-25T08:44:11.840Z,18.95
2022-12-25T08:46:40.888Z,18.25
2022-12-25T08:49:09.094Z,21.23
2022-12-25T08:51:37.405Z,21.67
2022-12-25T08:54:08.347Z,19.17
2022-12-25T08:56:37.351Z,20.73
2022-12-25T08:59:05.796Z,19.17
2022-12-25T09:01:34.650Z,21.75
2022-12-25T09:04:03.293Z,22.08
2022-12-25T09:06:34.179Z,21.02
2022-12-25T09:09:03.136Z,22.02
2022-12-25T09:11:31.429Z,21.05
2022-12-25T09:14:00.424Z,18.65
2022-12-25T09:16:30.049Z,18.67
2022-12-25T09:18:58.639Z,17.90
2022-12-25T09:21:27.264Z,17.25
2022-12-25T09:23:56.236Z,17.92
2022-12-25T09:26:24.938Z,16.33
2022-12-25T09:28:53.380Z,16.83
2022-12-25T09:31:23.491Z,16.52
2022-12-25T09:33:56.173Z,17.20
2022-12-25T09:36:26.053Z,16.77
2022-12-25T09:38:54.168Z,16.08
2022-12-25T09:41:40.392Z,15.82
2022-12-25T09:44:22.712Z,15.80
2022-12-25T09:47:23.919Z,16.08
2022-12-25T09:50:12.487Z,17.00
2022-12-25T09:53:00.976Z,16.63
2022-12-25T09:55:34.587Z,16.75
2022-12-25T09:58:12.996Z,15.93
2022-12-25T10:00:56.080Z,17.35
2022-12-25T10:03:31.268Z,17.17
2022-12-25T10:06:16.709Z,16.25
2022-12-25T10:09:02.605Z,16.52
2022-12-25T10:12:08.823Z,15.20
2022-12-25T10:15:14.119Z,15.65
2022-12-25T10:18:22.732Z,15.57
2022-12-25T10:20:57.704Z,16.15
2022-12-25T10:23:37.744Z,14.85
2022-12-25T10:26:25.401Z,16.05
2022-12-25T10:29:14.123Z,15.95
2022-12-25T10:31:47.089Z,16.80
2022-12-25T10:34:16.364Z,17.70
2022-12-25T10:36:47.996Z,17.70
2022-12-25T10:39:25.144Z,16.95
2022-12-25T10:42:56.001Z,17.88
2022-12-25T10:45:24.579Z,17.77
2022-12-25T10:48:07.457Z,18.05
2022-12-25T10:50:44.185Z,16.80
2022-12-25T10:53:27.739Z,16.67
2022-12-25T10:56:02.507Z,21.67
2022-12-25T10:58:32.210Z,28.35
2022-12-25T11:01:10.612Z,27.90
2022-12-25T11:03:51.398Z,25.48
2022-12-25T11:06:38.222Z,26.88
2022-12-25T11:09:07.974Z,27.50
2022-12-25T11:11:38.355Z,30.48
2022-12-25T11:14:06.837Z,28.30
2022-12-25T11:16:40.323Z,22.00
2022-12-25T11:19:22.231Z,20.38
2022-12-25T11:22:00.825Z,19.38
2022-12-25T11:24:33.003Z,19.70
2022-12-25T11:27:06.616Z,19.90
2022-12-25T11:29:59.702Z,18.45
2022-12-25T11:32:55.581Z,20.95
2022-12-25T11:35:31.335Z,18.65
2022-12-25T11:37:59.691Z,18.23
2022-12-25T11:40:58.552Z,18.00
2022-12-25T11:43:52.295Z,19.95
2022-12-25T11:46:31.630Z,18.17
2022-12-25T11:49:11.830Z,16.65
2022-12-25T11:51:44.583Z,16.83
2022-12-25T11:54:46.140Z,18.77
2022-12-25T11:57:14.315Z,23.60
2022-12-25T11:59:57.319Z,22.92
2022-12-25T12:03:13.383Z,23.90
2022-12-25T12:06:14.986Z,20.15
2022-12-25T12:08:44.289Z,19.70
2022-12-25T12:11:25.489Z,18.42
2022-12-25T12:14:21.163Z,19.52
2022-12-25T12:16:49.526Z,20.75
2022-12-25T12:19:31.728Z,21.48
2022-12-25T12:22:04.111Z,18.95
2022-12-25T12:24:42.000Z,19.92
2022-12-25T12:27:40.717Z,19.63
2022-12-25T12:30:31.886Z,19.15
2022-12-25T12:33:05.199Z,19.17
2022-12-25T12:35:38.651Z,20.27
2022-12-25T12:38:20.110Z,17.23
2022-12-25T12:41:05.252Z,19.45
2022-12-25T12:44:01.046Z,19.95
2022-12-25T12:46:37.036Z,20.77
2022-12-25T12:49:32.476Z,20.00
2022-12-25T12:52:33.126Z,21.13
2022-12-25T12:55:14.541Z,22.15
2022-12-25T12:57:43.284Z,24.45
2022-12-25T13:00:21.410Z,27.67
2022-12-25T13:03:10.803Z,25.33
2022-12-25T13:05:41.545Z,22.92
2022-12-25T13:08:28.480Z,23.13
2022-12-25T13:11:11.109Z,25.75
2022-12-25T13:13:45.801Z,33.13
2022-12-25T13:16:27.227Z,31.70
2022-12-25T13:18:57.440Z,27.17
2022-12-25T13:21:30.586Z,30.45
2022-12-25T13:24:09.059Z,30.40
2022-12-25T13:26:39.363Z,29.40
2022-12-25T13:29:18.421Z,24.35
2022-12-25T13:31:46.944Z,24.15
2022-12-25T13:34:37.613Z,24.25
2022-12-25T13:37:15.279Z,23.10
2022-12-25T13:40:07.293Z,21.30
2022-12-25T13:42:42.469Z,21.30
2022-12-25T13:45:13.860Z,19.38
2022-12-25T13:47:49.903Z,24.17
2022-12-25T13:50:33.448Z,22.23
2022-12-25T13:53:14.106Z,20.50
2022-12-25T13:55:46.288Z,20.58
2022-12-25T13:58:26.427Z,19.63
2022-12-25T14:00:59.210Z,19.27
2022-12-25T14:03:42.883Z,19.35
2022-12-25T14:06:30.733Z,18.77
2022-12-25T14:08:59.890Z,19.27
2022-12-25T14:11:31.763Z,20.15
2022-12-25T14:14:27.603Z,20.30
2022-12-25T14:16:58.740Z,20.67
2022-12-25T14:19:33.620Z,20.58
2022-12-25T14:22:16.429Z,24.52
2022-12-25T14:24:44.764Z,19.40
2022-12-25T14:27:27.857Z,20.30
2022-12-25T14:30:00.858Z,19.95
2022-12-25T14:32:39.131Z,20.00
2022-12-25T14:35:12.561Z,19.35
2022-12-25T14:37:43.659Z,17.83
2022-12-25T14:40:32.559Z,18.88
2022-12-25T14:43:19.747Z,19.05
2022-12-25T14:46:03.111Z,20.48
2022-12-25T14:48:33.376Z,17.00
2022-12-25T14:51:18.115Z,18.42
2022-12-25T14:54:02.892Z,20.92
2022-12-25T14:56:39.398Z,21.55
2022-12-25T14:59:16.706Z,21.45
2022-12-25T15:01:49.816Z,19.85
2022-12-25T15:04:20.874Z,24.30
2022-12-25T15:07:08.783Z,22.05
2022-12-25T15:09:38.037Z,20.83
2022-12-25T15:12:06.682Z,23.70
2022-12-25T15:14:38.524Z,20.48
2022-12-25T15:17:07.030Z,26.70
2022-12-25T15:19:38.789Z,25.17
2022-12-25T15:22:10.290Z,22.88
2022-12-25T15:24:38.536Z,24.42
2022-12-25T15:27:18.539Z,22.75
2022-12-25T15:32:35.826Z,21.98
2022-12-25T15:35:07.984Z,22.15
2022-12-25T15:37:37.580Z,24.83
2022-12-25T15:40:10.701Z,25.33
2022-12-25T15:42:39.823Z,24.13
2022-12-25T15:45:27.945Z,23.90
2022-12-25T15:47:57.226Z,23.60
2022-12-25T15:50:25.575Z,24.65
2022-12-25T15:52:53.790Z,25.27
2022-12-25T15:55:22.431Z,25.80
2022-12-25T15:57:54.739Z,26.58
2022-12-25T16:00:25.989Z,28.45
2022-12-25T16:02:54.682Z,27.85
2022-12-25T16:05:23.480Z,22.33
2022-12-25T16:07:52.385Z,22.20
2022-12-25T16:10:23.179Z,21.92
2022-12-25T16:12:51.817Z,23.97
2022-12-25T16:15:20.155Z,22.30
2022-12-25T16:17:48.480Z,25.08
2022-12-25T16:20:17.304Z,23.55
2022-12-25T16:22:45.646Z,25.52
2022-12-25T16:25:17.037Z,23.65
2022-12-25T16:27:45.560Z,24.15
2022-12-25T16:30:17.722Z,25.90
2022-12-25T16:32:50.667Z,24.02
2022-12-25T16:35:19.232Z,21.92
2022-12-25T16:37:48.405Z,26.73
2022-12-25T16:40:18.495Z,25.65
2022-12-25T16:42:47.939Z,27.42
2022-12-25T16:45:16.953Z,27.33
2022-12-25T16:47:46.578Z,29.88
2022-12-25T16:50:17.078Z,28.70
2022-12-25T16:52:45.963Z,27.20
2022-12-25T16:55:14.707Z,29.35
2022-12-25T16:57:48.250Z,29.23
2022-12-25T17:00:18.805Z,28.40
2022-12-25T17:02:49.407Z,28.35
2022-12-25T17:05:21.549Z,27.02
2022-12-25T17:07:50.851Z,26.25
2022-12-25T17:10:20.143Z,27.33
2022-12-25T17:12:49.222Z,26.98
2022-12-25T17:15:18.437Z,24.42
2022-12-25T17:17:47.010Z,26.25
2022-12-25T17:20:16.201Z,25.23
2022-12-25T17:22:44.905Z,24.75
2022-12-25T17:25:13.433Z,22.77
2022-12-25T17:27:43.484Z,23.27
2022-12-25T17:30:12.101Z,22.15
2022-12-25T17:32:40.765Z,21.75
2022-12-25T17:35:14.248Z,21.00
2022-12-25T17:37:43.125Z,22.10
2022-12-25T17:40:12.522Z,20.90
2022-12-25T17:42:41.809Z,19.58
2022-12-25T17:45:12.244Z,18.88
2022-12-25T17:47:41.108Z,18.20
2022-12-25T17:50:13.208Z,18.25
2022-12-25T17:55:10.905Z,17.17
2022-12-25T17:57:41.260Z,15.98
2022-12-25T18:00:11.913Z,15.25
2022-12-25T18:02:47.595Z,14.45
2022-12-25T18:05:18.471Z,13.52
2022-12-25T18:07:48.489Z,12.52
2022-12-25T18:10:17.940Z,13.43
2022-12-25T18:12:47.826Z,13.98
2022-12-25T18:15:19.485Z,13.55
2022-12-25T18:17:49.234Z,18.80
2022-12-25T18:20:18.966Z,15.60
2022-12-25T18:22:48.770Z,16.00
2022-12-25T18:25:18.399Z,14.75
2022-12-25T18:27:48.242Z,15.57
2022-12-25T18:30:17.689Z,13.05
2022-12-25T18:32:47.025Z,13.23
2022-12-25T18:35:15.699Z,16.40
2022-12-25T18:37:44.637Z,14.82
2022-12-25T18:40:13.358Z,14.90
2022-12-25T18:42:43.210Z,15.75
2022-12-25T18:45:16.341Z,14.50
2022-12-25T18:47:47.834Z,15.55
2022-12-25T18:50:16.885Z,15.00
2022-12-25T18:52:47.808Z,13.23
2022-12-25T18:55:20.091Z,14.65
2022-12-25T18:57:50.205Z,13.32
2022-12-25T19:00:19.510Z,13.73
2022-12-25T19:02:49.116Z,15.23
2022-12-25T19:05:18.077Z,13.93
2022-12-25T19:07:46.570Z,13.85
2022-12-25T19:10:16.215Z,14.25
2022-12-25T19:12:44.986Z,14.70
2022-12-25T19:15:14.212Z,15.48
2022-12-25T19:17:43.842Z,15.32
2022-12-25T19:20:14.100Z,14.77
2022-12-25T19:22:44.096Z,13.27
2022-12-25T19:25:14.786Z,14.73
2022-12-25T19:27:45.350Z,14.88
2022-12-25T19:30:14.630Z,13.93
2022-12-25T19:32:44.059Z,14.35
2022-12-25T19:35:12.661Z,13.25
2022-12-25T19:37:42.199Z,13.50
2022-12-25T19:40:14.814Z,13.48
2022-12-25T19:42:44.934Z,12.50
2022-12-25T19:45:14.847Z,12.98
2022-12-25T19:47:44.917Z,13.13
2022-12-25T19:50:13.910Z,12.98
2022-12-25T19:52:42.964Z,12.35
2022-12-25T19:55:11.928Z,13.90
2022-12-25T19:57:41.725Z,14.95
2022-12-25T20:00:12.340Z,14.57
2022-12-25T20:02:47.950Z,13.35
2022-12-25T20:05:18.198Z,14.13
2022-12-25T20:07:47.850Z,15.10
2022-12-25T20:10:17.464Z,14.25
2022-12-25T20:12:46.939Z,13.77
2022-12-25T20:15:16.318Z,13.10
2022-12-25T20:17:47.439Z,13.68
2022-12-25T20:20:16.658Z,13.88
2022-12-25T20:22:46.022Z,19.95
2022-12-25T20:25:15.592Z,19.42
2022-12-25T20:27:44.675Z,21.20
2022-12-25T20:30:15.353Z,14.77
2022-12-25T20:32:50.166Z,12.30
2022-12-25T20:35:19.886Z,12.85
2022-12-25T20:37:49.165Z,13.10
2022-12-25T20:40:18.150Z,13.82
2022-12-25T20:42:47.550Z,12.65
2022-12-25T20:45:16.045Z,14.13
2022-12-25T20:47:44.432Z,13.07
2022-12-25T20:50:13.079Z,14.52
2022-12-25T20:52:41.447Z,14.82
2022-12-25T20:55:10.755Z,14.48
2022-12-25T20:57:40.530Z,14.43
2022-12-25T21:00:10.688Z,13.98
2022-12-25T21:02:39.169Z,14.73
2022-12-25T21:05:11.790Z,14.48
2022-12-25T21:07:41.087Z,13.88
2022-12-25T21:10:13.483Z,13.77
2022-12-25T21:12:41.969Z,13.65
2022-12-25T21:15:15.327Z,13.07
2022-12-25T21:17:44.486Z,14.80
2022-12-25T21:20:13.102Z,15.85
2022-12-25T21:22:41.655Z,16.23
2022-12-25T21:25:14.011Z,17.35
2022-12-25T21:27:43.009Z,16.00
2022-12-25T21:30:17.650Z,14.18
2022-12-25T21:33:14.703Z,18.20
2022-12-25T21:35:45.692Z,19.30
2022-12-25T21:38:15.061Z,17.00
2022-12-25T21:40:43.842Z,18.75
2022-12-25T21:43:14.798Z,19.63
2022-12-25T21:45:44.592Z,18.58
2022-12-25T21:48:13.696Z,18.02
2022-12-25T21:51:00.617Z,15.95
2022-12-25T21:53:29.324Z,16.42
2022-12-25T21:56:03.086Z,14.60
2022-12-25T21:58:32.087Z,14.43
2022-12-25T22:01:04.586Z,14.68
2022-12-25T22:03:33.770Z,15.20
2022-12-25T22:06:22.013Z,16.75
2022-12-25T22:08:50.932Z,18.58
2022-12-25T22:11:40.248Z,17.98
2022-12-25T22:14:52.804Z,17.88
2022-12-25T22:17:47.501Z,18.88
2022-12-25T22:20:26.614Z,17.77
2022-12-25T22:22:55.398Z,16.25
2022-12-25T22:25:24.802Z,16.02
2022-12-25T22:27:53.963Z,14.73
2022-12-25T22:30:27.015Z,14.82
2022-12-25T22:33:04.015Z,14.15
2022-12-25T22:35:33.362Z,12.65
2022-12-25T22:38:02.502Z,15.15
2022-12-25T22:40:32.165Z,15.98
2022-12-25T22:43:01.496Z,14.35
2022-12-25T22:45:30.714Z,14.50
2022-12-25T22:47:59.688Z,13.70
2022-12-25T22:50:28.298Z,13.50
2022-12-25T22:52:57.301Z,15.23
2022-12-25T22:55:26.225Z,21.90
2022-12-25T22:57:58.760Z,18.10
2022-12-25T23:00:27.440Z,15.57
2022-12-25T23:02:56.471Z,12.88
2022-12-25T23:05:25.152Z,14.95
2022-12-25T23:07:53.581Z,13.57
2022-12-25T23:10:22.226Z,13.75
2022-12-25T23:13:12.921Z,14.10
2022-12-25T23:15:41.656Z,14.32
2022-12-25T23:18:31.874Z,12.00
2022-12-25T23:21:20.468Z,14.02
2022-12-25T23:24:08.053Z,14.63
2022-12-25T23:26:37.509Z,15.23
2022-12-25T23:29:25.022Z,16.20
2022-12-25T23:31:54.355Z,15.10
2022-12-25T23:34:23.444Z,14.35
2022-12-25T23:36:52.094Z,14.50
2022-12-25T23:39:20.545Z,13.27
2022-12-25T23:41:49.000Z,12.77
2022-12-25T23:44:17.878Z,11.63
2022-12-25T23:46:52.818Z,11.13
2022-12-25T23:49:24.709Z,14.68
2022-12-25T23:51:54.580Z,12.93
2022-12-25T23:54:33.208Z,15.00
2022-12-25T23:57:02.289Z,13.80
2022-12-25T23:59:31.822Z,15.13
